createdAt,value
2022-07-26T00:00:16.593Z,10.23
2022-07-26T00:02:47.871Z,14.07
2022-07-26T00:05:16.785Z,12.85
2022-07-26T00:07:44.954Z,15.85
2022-07-26T00:10:12.887Z,11.45
2022-07-26T00:12:40.827Z,12.50
2022-07-26T00:15:10.397Z,12.23
2022-07-26T00:17:38.476Z,13.60
2022-07-26T00:20:06.506Z,11.95
2022-07-26T00:22:34.151Z,10.98
2022-07-26T00:25:02.993Z,14.80
2022-07-26T00:27:30.633Z,11.02
2022-07-26T00:29:58.257Z,12.13
2022-07-26T00:32:25.993Z,10.75
2022-07-26T00:34:53.784Z,13.75
2022-07-26T00:37:21.551Z,13.07
2022-07-26T00:39:49.538Z,14.27
2022-07-26T00:42:17.174Z,12.27
2022-07-26T00:44:45.696Z,11.02
2022-07-26T00:47:13.649Z,13.65
2022-07-26T00:49:41.673Z,13.32
2022-07-26T00:52:10.112Z,13.60
2022-07-26T00:54:38.564Z,12.73
2022-07-26T00:57:06.454Z,15.57
2022-07-26T00:59:34.165Z,12.38
2022-07-26T01:02:02.643Z,11.90
2022-07-26T01:04:30.414Z,9.63
2022-07-26T01:06:58.035Z,15.13
2022-07-26T01:09:25.865Z,15.15
2022-07-26T01:11:53.493Z,14.35
2022-07-26T01:14:21.685Z,12.40
2022-07-26T01:16:49.498Z,9.20
2022-07-26T01:19:17.182Z,7.40
2022-07-26T01:21:45.788Z,8.93
2022-07-26T01:24:13.581Z,8.82
2022-07-26T01:26:41.259Z,14.30
2022-07-26T01:29:08.915Z,9.68
2022-07-26T01:31:36.796Z,7.18
2022-07-26T01:34:04.738Z,10.70
2022-07-26T01:36:32.603Z,11.38
2022-07-26T01:39:00.262Z,10.15
2022-07-26T01:41:37.411Z,8.88
2022-07-26T01:44:06.176Z,7.88
2022-07-26T01:46:34.463Z,8.70
2022-07-26T01:49:02.712Z,9.88
2022-07-26T01:51:30.528Z,10.35
2022-07-26T01:53:58.163Z,11.43
2022-07-26T01:56:25.787Z,7.60
2022-07-26T01:58:53.538Z,12.95
2022-07-26T02:01:38.097Z,10.43
2022-07-26T02:04:09.147Z,9.38
2022-07-26T02:06:37.397Z,8.60
2022-07-26T02:09:07.579Z,12.93
2022-07-26T02:11:38.309Z,13.70
2022-07-26T02:14:06.211Z,13.02
2022-07-26T02:16:34.058Z,13.40
2022-07-26T02:19:01.699Z,11.18
2022-07-26T02:21:29.325Z,9.82
2022-07-26T02:23:56.951Z,9.35
2022-07-26T02:26:24.560Z,13.93
2022-07-26T02:28:52.235Z,11.13
2022-07-26T02:31:19.925Z,12.73
2022-07-26T02:33:48.421Z,11.10
2022-07-26T02:36:16.083Z,10.45
2022-07-26T02:38:43.662Z,14.05
2022-07-26T02:41:11.295Z,13.80
2022-07-26T02:43:38.976Z,11.43
2022-07-26T02:46:06.641Z,12.82
2022-07-26T02:48:34.335Z,12.68
2022-07-26T02:51:02.489Z,11.23
2022-07-26T02:53:30.104Z,11.15
2022-07-26T02:55:57.745Z,10.88
2022-07-26T02:58:26.895Z,8.45
2022-07-26T03:01:12.551Z,12.60
2022-07-26T03:03:41.182Z,14.20
2022-07-26T03:06:09.237Z,10.60
2022-07-26T03:08:36.967Z,11.55
2022-07-26T03:11:09.020Z,11.02
2022-07-26T03:13:39.440Z,8.60
2022-07-26T03:16:10.063Z,10.32
2022-07-26T03:18:37.803Z,7.30
2022-07-26T03:21:05.438Z,8.90
2022-07-26T03:23:34.509Z,9.45
2022-07-26T03:26:04.940Z,7.43
2022-07-26T03:28:33.250Z,7.03
2022-07-26T03:31:01.243Z,6.43
2022-07-26T03:33:29.714Z,10.05
2022-07-26T03:35:57.362Z,8.20
2022-07-26T03:38:25.118Z,8.63
2022-07-26T03:40:53.094Z,9.15
2022-07-26T03:43:23.171Z,8.00
2022-07-26T03:45:54.258Z,9.70
2022-07-26T03:48:22.615Z,6.85
2022-07-26T03:50:50.259Z,9.80
2022-07-26T03:53:17.932Z,11.82
2022-07-26T03:56:04.458Z,9.57
2022-07-26T03:58:32.149Z,12.40
2022-07-26T04:00:59.996Z,9.75
2022-07-26T04:03:27.765Z,8.35
2022-07-26T04:05:56.065Z,6.72
2022-07-26T04:08:23.858Z,7.50
2022-07-26T04:10:51.614Z,9.07
2022-07-26T04:13:19.800Z,9.77
2022-07-26T04:15:47.817Z,11.25
2022-07-26T04:18:15.517Z,9.13
2022-07-26T04:20:43.431Z,7.97
2022-07-26T04:23:12.455Z,13.13
2022-07-26T04:25:41.664Z,9.15
2022-07-26T04:28:10.179Z,10.20
2022-07-26T04:30:38.255Z,7.72
2022-07-26T04:33:06.188Z,9.63
2022-07-26T04:35:34.306Z,8.55
2022-07-26T04:38:02.574Z,11.30
2022-07-26T04:40:33.538Z,9.15
2022-07-26T04:43:02.449Z,14.93
2022-07-26T04:45:30.574Z,8.35
2022-07-26T04:47:58.762Z,10.98
2022-07-26T04:50:28.141Z,9.02
2022-07-26T04:52:56.177Z,14.40
2022-07-26T04:55:24.206Z,11.27
2022-07-26T04:57:51.937Z,12.55
2022-07-26T05:00:24.179Z,8.27
2022-07-26T05:02:56.623Z,9.90
2022-07-26T05:05:24.771Z,9.10
2022-07-26T05:07:54.677Z,11.23
2022-07-26T05:10:22.845Z,10.32
2022-07-26T05:12:50.655Z,10.02
2022-07-26T05:15:18.293Z,10.15
2022-07-26T05:17:45.938Z,12.02
2022-07-26T05:20:15.330Z,12.13
2022-07-26T05:22:43.363Z,10.93
2022-07-26T05:25:11.286Z,8.70
2022-07-26T05:27:40.614Z,7.13
2022-07-26T05:30:09.071Z,10.57
2022-07-26T05:32:37.033Z,11.73
2022-07-26T05:35:04.886Z,14.07
2022-07-26T05:37:32.561Z,12.82
2022-07-26T05:40:00.192Z,11.50
2022-07-26T05:42:28.112Z,16.50
2022-07-26T05:44:55.979Z,13.30
2022-07-26T05:47:23.853Z,17.40
2022-07-26T05:49:51.460Z,19.50
2022-07-26T05:52:19.408Z,10.30
2022-07-26T05:54:47.075Z,13.80
2022-07-26T05:57:14.734Z,8.68
2022-07-26T05:59:42.366Z,9.20
2022-07-26T06:02:10.054Z,10.05
2022-07-26T06:04:37.808Z,8.77
2022-07-26T06:07:05.534Z,9.00
2022-07-26T06:09:33.117Z,6.70
2022-07-26T06:12:00.795Z,8.65
2022-07-26T06:14:28.491Z,11.98
2022-07-26T06:16:56.553Z,11.13
2022-07-26T06:19:24.237Z,11.32
2022-07-26T06:21:51.880Z,10.98
2022-07-26T06:24:19.533Z,16.58
2022-07-26T06:26:53.417Z,12.82
2022-07-26T06:29:24.177Z,10.90
2022-07-26T06:31:59.896Z,12.25
2022-07-26T06:34:27.602Z,7.82
2022-07-26T06:36:55.261Z,8.93
2022-07-26T06:39:22.915Z,12.20
2022-07-26T06:41:50.573Z,10.15
2022-07-26T06:44:22.977Z,7.30
2022-07-26T06:46:50.717Z,10.65
2022-07-26T06:49:22.279Z,9.70
2022-07-26T06:51:50.705Z,12.35
2022-07-26T06:54:18.355Z,13.02
2022-07-26T06:56:46.014Z,16.08
2022-07-26T06:59:13.685Z,12.85
2022-07-26T07:01:57.986Z,14.90
2022-07-26T07:04:31.720Z,17.15
2022-07-26T07:07:05.176Z,16.77
2022-07-26T07:09:33.923Z,16.55
2022-07-26T07:12:10.227Z,13.63
2022-07-26T07:14:39.172Z,15.45
2022-07-26T07:17:11.159Z,15.75
2022-07-26T07:19:41.718Z,15.65
2022-07-26T07:22:12.070Z,14.45
2022-07-26T07:24:40.438Z,12.17
2022-07-26T07:27:08.793Z,17.15
2022-07-26T07:29:38.458Z,10.98
2022-07-26T07:32:08.929Z,16.02
2022-07-26T07:34:45.710Z,15.98
2022-07-26T07:37:15.465Z,15.82
2022-07-26T07:39:43.446Z,15.95
2022-07-26T07:42:11.216Z,16.73
2022-07-26T07:44:38.867Z,13.95
2022-07-26T07:47:06.824Z,12.38
2022-07-26T07:49:34.557Z,14.52
2022-07-26T07:52:02.289Z,17.42
2022-07-26T07:54:30.536Z,16.13
2022-07-26T07:56:58.228Z,17.40
2022-07-26T07:59:25.894Z,15.70
2022-07-26T08:01:53.478Z,9.63
2022-07-26T08:04:21.158Z,18.05
2022-07-26T08:06:50.432Z,16.42
2022-07-26T08:09:19.846Z,13.85
2022-07-26T08:11:50.774Z,8.30
2022-07-26T08:14:19.635Z,9.93
2022-07-26T08:16:47.594Z,9.50
2022-07-26T08:19:16.092Z,14.20
2022-07-26T08:21:46.736Z,14.13
2022-07-26T08:24:14.617Z,9.52
2022-07-26T08:26:42.260Z,10.30
2022-07-26T08:29:09.988Z,12.85
2022-07-26T08:31:37.788Z,8.38
2022-07-26T08:34:05.502Z,10.88
2022-07-26T08:36:33.324Z,11.85
2022-07-26T08:39:01.937Z,8.27
2022-07-26T08:41:29.781Z,14.15
2022-07-26T08:44:05.211Z,11.30
2022-07-26T08:46:35.014Z,10.93
2022-07-26T08:49:02.782Z,13.30
2022-07-26T08:51:31.538Z,13.60
2022-07-26T08:54:05.460Z,17.55
2022-07-26T08:56:35.025Z,13.43
2022-07-26T08:59:07.225Z,14.85
2022-07-26T09:01:35.290Z,13.30
2022-07-26T09:04:30.534Z,14.50
2022-07-26T09:07:01.086Z,11.40
2022-07-26T09:09:29.192Z,13.63
2022-07-26T09:11:57.633Z,10.88
2022-07-26T09:14:36.509Z,8.85
2022-07-26T09:17:06.059Z,11.48
2022-07-26T09:19:34.568Z,10.98
2022-07-26T09:22:10.511Z,9.77
2022-07-26T09:24:42.634Z,8.02
2022-07-26T09:27:11.789Z,12.50
2022-07-26T09:29:43.203Z,8.82
2022-07-26T09:32:18.834Z,14.27
2022-07-26T09:34:53.619Z,12.15
2022-07-26T09:37:40.742Z,8.60
2022-07-26T09:40:10.198Z,10.32
2022-07-26T09:42:37.951Z,7.60
2022-07-26T09:45:16.520Z,13.18
2022-07-26T09:47:44.189Z,10.85
2022-07-26T09:50:12.128Z,7.95
2022-07-26T09:52:39.984Z,7.93
2022-07-26T09:55:08.614Z,5.13
2022-07-26T09:57:36.918Z,6.75
2022-07-26T10:00:07.956Z,11.23
2022-07-26T10:02:35.740Z,6.45
2022-07-26T10:05:03.474Z,8.50
2022-07-26T10:07:31.199Z,8.35
2022-07-26T10:10:01.671Z,11.93
2022-07-26T10:12:32.098Z,9.77
2022-07-26T10:14:59.778Z,9.82
2022-07-26T10:17:31.291Z,9.25
2022-07-26T10:20:01.743Z,11.88
2022-07-26T10:22:36.905Z,6.35
2022-07-26T10:25:19.987Z,8.77
2022-07-26T10:27:52.495Z,7.90
2022-07-26T10:30:20.348Z,8.23
2022-07-26T10:33:08.922Z,7.82
2022-07-26T10:35:36.678Z,12.88
2022-07-26T10:38:05.788Z,9.75
2022-07-26T10:40:33.867Z,8.65
2022-07-26T10:43:40.707Z,5.72
2022-07-26T10:46:30.968Z,8.45
2022-07-26T10:48:59.498Z,6.70
2022-07-26T10:51:28.488Z,7.63
2022-07-26T10:54:10.520Z,11.63
2022-07-26T10:56:38.696Z,9.05
2022-07-26T10:59:06.726Z,8.00
2022-07-26T11:01:35.291Z,8.82
2022-07-26T11:04:02.999Z,9.50
2022-07-26T11:06:30.629Z,9.82
2022-07-26T11:08:58.390Z,12.13
2022-07-26T11:11:33.418Z,12.52
2022-07-26T11:14:11.629Z,12.27
2022-07-26T11:16:43.554Z,12.50
2022-07-26T11:21:39.053Z,10.77
2022-07-26T11:24:06.964Z,12.65
2022-07-26T11:26:41.957Z,8.85
2022-07-26T11:29:09.644Z,8.50
2022-07-26T11:31:49.355Z,12.60
2022-07-26T11:34:24.084Z,10.85
2022-07-26T11:36:52.952Z,15.55
2022-07-26T11:39:26.672Z,9.63
2022-07-26T11:41:58.383Z,10.65
2022-07-26T11:46:53.881Z,9.80
2022-07-26T11:49:41.360Z,10.65
2022-07-26T11:52:12.197Z,9.15
2022-07-26T11:54:47.586Z,14.20
2022-07-26T11:57:15.376Z,11.52
2022-07-26T11:59:44.710Z,11.57
2022-07-26T12:02:13.451Z,11.82
2022-07-26T12:04:44.863Z,12.98
2022-07-26T12:07:14.085Z,9.05
2022-07-26T12:09:43.267Z,11.05
2022-07-26T12:12:11.644Z,11.50
2022-07-26T12:14:39.769Z,11.55
2022-07-26T12:17:17.111Z,9.20
2022-07-26T12:19:45.418Z,9.80
2022-07-26T12:22:14.247Z,9.65
2022-07-26T12:24:43.580Z,9.38
2022-07-26T12:27:21.055Z,7.97
2022-07-26T12:29:52.669Z,11.93
2022-07-26T12:34:58.628Z,7.65
2022-07-26T12:37:37.646Z,10.65
2022-07-26T12:40:12.359Z,8.93
2022-07-26T12:42:44.114Z,9.23
2022-07-26T12:45:13.760Z,14.95
2022-07-26T12:47:42.339Z,10.02
2022-07-26T12:50:10.910Z,7.28
2022-07-26T12:52:38.688Z,11.88
2022-07-26T12:55:07.645Z,15.73
2022-07-26T12:57:36.915Z,8.13
2022-07-26T13:00:05.771Z,9.73
2022-07-26T13:02:33.412Z,12.05
2022-07-26T13:05:01.881Z,10.15
2022-07-26T13:07:29.639Z,8.73
2022-07-26T13:10:22.596Z,9.07
2022-07-26T13:12:44.927Z,10.68
2022-07-26T13:15:12.550Z,10.35
2022-07-26T13:17:40.229Z,9.68
2022-07-26T13:20:08.063Z,9.48
2022-07-26T13:22:36.716Z,11.85
2022-07-26T13:25:08.367Z,13.77
2022-07-26T13:27:39.097Z,9.30
2022-07-26T13:30:09.403Z,8.90
2022-07-26T13:32:37.072Z,8.88
2022-07-26T13:35:04.793Z,10.05
2022-07-26T13:37:32.410Z,10.75
2022-07-26T13:40:00.297Z,10.10
2022-07-26T13:42:28.010Z,10.70
2022-07-26T13:44:55.653Z,10.15
2022-07-26T13:47:23.294Z,12.27
2022-07-26T13:49:50.914Z,8.90
2022-07-26T13:52:18.657Z,11.45
2022-07-26T13:54:46.346Z,13.25
2022-07-26T13:57:13.999Z,8.75
2022-07-26T13:59:41.714Z,14.70
2022-07-26T14:02:09.497Z,9.65
2022-07-26T14:04:37.224Z,7.82
2022-07-26T14:07:04.934Z,9.35
2022-07-26T14:09:32.641Z,10.13
2022-07-26T14:12:00.380Z,9.23
2022-07-26T14:14:28.022Z,7.50
2022-07-26T14:16:55.689Z,8.82
2022-07-26T14:19:23.349Z,7.38
2022-07-26T14:21:59.178Z,9.43
2022-07-26T14:24:28.410Z,8.05
2022-07-26T14:26:59.247Z,10.10
2022-07-26T14:29:28.263Z,8.80
2022-07-26T14:31:56.157Z,11.00
2022-07-26T14:34:23.891Z,8.02
2022-07-26T14:36:51.538Z,12.30
2022-07-26T14:39:19.194Z,7.60
2022-07-26T14:41:47.511Z,7.95
2022-07-26T14:44:15.220Z,8.98
2022-07-26T14:46:43.869Z,14.15
2022-07-26T14:49:11.599Z,9.60
2022-07-26T14:51:39.440Z,7.75
2022-07-26T14:54:07.364Z,12.93
2022-07-26T14:56:37.424Z,9.70
2022-07-26T14:59:05.181Z,10.43
2022-07-26T15:01:32.956Z,8.95
2022-07-26T15:04:00.665Z,13.02
2022-07-26T15:06:28.434Z,8.13
2022-07-26T15:08:56.106Z,11.48
2022-07-26T15:11:23.806Z,7.97
2022-07-26T15:13:51.485Z,12.57
2022-07-26T15:16:19.291Z,9.90
2022-07-26T15:18:46.987Z,12.55
2022-07-26T15:21:17.563Z,10.15
2022-07-26T15:23:45.272Z,11.18
2022-07-26T15:26:12.954Z,9.55
2022-07-26T15:28:40.590Z,13.27
2022-07-26T15:31:10.044Z,15.40
2022-07-26T15:33:37.761Z,12.60
2022-07-26T15:36:06.140Z,10.57
2022-07-26T15:38:33.870Z,13.43
2022-07-26T15:41:01.485Z,9.82
2022-07-26T15:43:44.160Z,14.88
2022-07-26T15:46:17.157Z,10.13
2022-07-26T15:48:45.294Z,11.30
2022-07-26T15:51:15.229Z,8.70
2022-07-26T15:53:46.400Z,12.82
2022-07-26T15:58:42.760Z,11.48
2022-07-26T16:01:13.925Z,10.80
2022-07-26T16:03:41.357Z,6.10
2022-07-26T16:06:08.740Z,8.15
2022-07-26T16:08:52.435Z,9.18
2022-07-26T16:11:23.791Z,10.98
2022-07-26T16:13:51.134Z,6.07
2022-07-26T16:16:30.448Z,8.55
2022-07-26T16:18:57.979Z,7.25
2022-07-26T16:21:25.436Z,7.28
2022-07-26T16:23:52.807Z,8.52
2022-07-26T16:26:20.124Z,10.82
2022-07-26T16:28:47.419Z,7.32
2022-07-26T16:31:14.959Z,7.18
2022-07-26T16:33:46.320Z,7.65
2022-07-26T16:36:14.392Z,6.45
2022-07-26T16:38:41.719Z,7.60
2022-07-26T16:41:09.151Z,7.88
2022-07-26T16:43:36.574Z,7.95
2022-07-26T16:46:03.886Z,9.93
2022-07-26T16:48:31.301Z,6.35
2022-07-26T16:50:58.650Z,5.65
2022-07-26T16:53:26.029Z,8.45
2022-07-26T16:55:53.386Z,7.68
2022-07-26T16:58:20.838Z,10.70
2022-07-26T17:00:48.358Z,6.03
2022-07-26T17:03:16.142Z,4.90
2022-07-26T17:05:45.856Z,8.50
2022-07-26T17:08:13.354Z,7.22
2022-07-26T17:10:41.070Z,7.63
2022-07-26T17:13:08.671Z,8.10
2022-07-26T17:15:36.082Z,7.88
2022-07-26T17:18:03.751Z,8.13
2022-07-26T17:20:31.273Z,12.43
2022-07-26T17:22:58.719Z,7.10
2022-07-26T17:25:26.131Z,5.63
2022-07-26T17:27:53.483Z,8.57
2022-07-26T17:30:20.891Z,7.28
2022-07-26T17:32:48.499Z,7.85
2022-07-26T17:35:15.994Z,8.93
2022-07-26T17:37:43.371Z,8.73
2022-07-26T17:40:12.375Z,5.60
2022-07-26T17:42:39.935Z,4.00
2022-07-26T17:45:07.799Z,4.88
2022-07-26T17:47:35.139Z,6.18
2022-07-26T17:50:35.935Z,7.22
2022-07-26T17:52:52.237Z,7.28
2022-07-26T17:55:20.512Z,29.48
2022-07-26T17:57:49.633Z,19.17
2022-07-26T18:00:20.073Z,26.35
2022-07-26T18:02:48.378Z,18.23
2022-07-26T18:05:16.630Z,17.65
2022-07-26T18:07:44.131Z,12.38
2022-07-26T18:10:12.105Z,18.80
2022-07-26T18:12:39.435Z,21.23
2022-07-26T18:15:07.761Z,11.63
2022-07-26T18:17:35.609Z,13.48
2022-07-26T18:20:04.408Z,11.05
2022-07-26T18:22:31.830Z,8.82
2022-07-26T18:24:59.113Z,8.77
2022-07-26T18:27:28.193Z,8.98
2022-07-26T18:29:56.528Z,12.10
2022-07-26T18:32:24.616Z,8.15
2022-07-26T18:34:52.664Z,8.98
2022-07-26T18:37:20.869Z,5.15
2022-07-26T18:39:52.699Z,6.57
2022-07-26T18:42:22.913Z,6.10
2022-07-26T18:44:50.230Z,6.70
2022-07-26T18:47:17.580Z,8.63
2022-07-26T18:49:45.007Z,6.65
2022-07-26T18:52:12.568Z,7.75
2022-07-26T18:54:40.178Z,5.63
2022-07-26T18:57:07.504Z,5.53
2022-07-26T18:59:34.940Z,6.88
2022-07-26T19:02:02.492Z,6.95
2022-07-26T19:04:29.947Z,6.93
2022-07-26T19:06:57.384Z,5.65
2022-07-26T19:09:24.983Z,6.85
2022-07-26T19:11:52.439Z,5.22
2022-07-26T19:14:19.814Z,5.70
2022-07-26T19:16:47.248Z,5.88
2022-07-26T19:19:14.961Z,5.55
2022-07-26T19:21:46.656Z,3.67
2022-07-26T19:24:14.039Z,5.93
2022-07-26T19:26:41.455Z,4.65
2022-07-26T19:29:09.111Z,4.05
2022-07-26T19:31:36.991Z,6.63
2022-07-26T19:34:04.824Z,6.70
2022-07-26T19:36:32.190Z,4.78
2022-07-26T19:39:01.186Z,4.95
2022-07-26T19:41:28.582Z,4.63
2022-07-26T19:43:55.961Z,5.90
2022-07-26T19:46:23.471Z,5.82
2022-07-26T19:48:51.341Z,9.68
2022-07-26T19:51:18.779Z,5.30
2022-07-26T19:53:46.071Z,5.60
2022-07-26T19:56:13.699Z,4.88
2022-07-26T19:58:41.122Z,5.95
2022-07-26T20:01:08.502Z,5.07
2022-07-26T20:03:35.857Z,6.50
2022-07-26T20:06:03.439Z,6.70
2022-07-26T20:08:30.782Z,4.03
2022-07-26T20:10:58.136Z,6.63
2022-07-26T20:13:25.661Z,4.97
2022-07-26T20:15:53.010Z,7.20
2022-07-26T20:18:24.650Z,3.85
2022-07-26T20:23:24.173Z,4.65
2022-07-26T20:25:51.719Z,6.20
2022-07-26T20:28:19.177Z,5.15
2022-07-26T20:30:48.367Z,4.43
2022-07-26T20:33:16.485Z,9.77
2022-07-26T20:35:44.227Z,5.22
2022-07-26T20:38:11.640Z,4.95
2022-07-26T20:40:39.567Z,6.13
2022-07-26T20:43:06.946Z,7.78
2022-07-26T20:45:34.316Z,4.95
2022-07-26T20:48:01.889Z,5.97
2022-07-26T20:50:29.209Z,6.95
2022-07-26T20:52:56.701Z,4.88
2022-07-26T20:55:24.171Z,5.47
2022-07-26T20:57:51.471Z,8.45
2022-07-26T21:00:18.979Z,6.03
2022-07-26T21:02:46.521Z,5.38
2022-07-26T21:05:13.995Z,8.68
2022-07-26T21:07:55.120Z,6.40
2022-07-26T21:10:28.999Z,4.78
2022-07-26T21:13:00.977Z,5.55
2022-07-26T21:15:29.964Z,5.28
2022-07-26T21:17:57.958Z,6.70
2022-07-26T21:20:25.482Z,3.90
2022-07-26T21:22:52.878Z,4.78
2022-07-26T21:25:20.316Z,6.32
2022-07-26T21:27:47.691Z,7.28
2022-07-26T21:30:15.047Z,7.43
2022-07-26T21:32:42.409Z,6.72
2022-07-26T21:35:09.896Z,8.45
2022-07-26T21:37:37.278Z,6.90
2022-07-26T21:40:05.188Z,7.50
2022-07-26T21:42:32.571Z,6.85
2022-07-26T21:44:59.900Z,5.53
2022-07-26T21:47:27.249Z,4.80
2022-07-26T21:49:54.543Z,4.75
2022-07-26T21:52:21.924Z,6.90
2022-07-26T21:54:49.280Z,6.18
2022-07-26T21:57:16.625Z,5.60
2022-07-26T21:59:43.969Z,7.07
2022-07-26T22:02:11.425Z,5.35
2022-07-26T22:04:38.825Z,4.63
2022-07-26T22:07:07.050Z,7.13
2022-07-26T22:09:34.426Z,6.60
2022-07-26T22:12:01.872Z,6.20
2022-07-26T22:14:29.199Z,4.55
2022-07-26T22:16:56.584Z,7.35
2022-07-26T22:19:24.059Z,3.78
2022-07-26T22:21:51.422Z,4.57
2022-07-26T22:24:18.791Z,7.80
2022-07-26T22:26:46.167Z,5.72
2022-07-26T22:29:13.886Z,6.85
2022-07-26T22:31:41.592Z,8.88
2022-07-26T22:34:09.050Z,4.32
2022-07-26T22:36:36.498Z,4.97
2022-07-26T22:39:04.097Z,7.55
2022-07-26T22:41:31.933Z,5.53
2022-07-26T22:44:00.120Z,6.20
2022-07-26T22:46:29.331Z,3.90
2022-07-26T22:48:57.152Z,6.30
2022-07-26T22:51:24.503Z,8.07
2022-07-26T22:53:51.847Z,6.30
2022-07-26T22:56:19.600Z,5.97
2022-07-26T22:58:47.599Z,7.43
2022-07-26T23:01:16.668Z,5.28
2022-07-26T23:03:44.569Z,7.63
2022-07-26T23:06:31.281Z,6.35
2022-07-26T23:08:59.963Z,8.10
2022-07-26T23:11:27.498Z,8.15
2022-07-26T23:13:59.183Z,5.03
2022-07-26T23:16:27.188Z,5.03
2022-07-26T23:18:56.175Z,5.47
2022-07-26T23:21:23.715Z,6.13
2022-07-26T23:23:51.146Z,5.70
2022-07-26T23:26:18.490Z,5.53
2022-07-26T23:28:45.858Z,4.25
2022-07-26T23:31:14.273Z,5.82
2022-07-26T23:33:52.330Z,3.97
2022-07-26T23:36:27.189Z,5.00
2022-07-26T23:38:57.049Z,5.15
2022-07-26T23:41:24.980Z,4.07
2022-07-26T23:43:54.175Z,5.28
2022-07-26T23:46:22.541Z,4.63
2022-07-26T23:48:50.386Z,5.95
2022-07-26T23:51:20.171Z,5.00
2022-07-26T23:53:47.613Z,4.68
2022-07-26T23:56:15.483Z,6.28
2022-07-26T23:58:43.146Z,3.47
